createdAt,value
2022-08-28T00:04:16.171Z,89.49
2022-08-28T00:09:20.852Z,88.98
2022-08-28T00:14:24.412Z,88.65
2022-08-28T00:19:27.671Z,88.00
2022-08-28T00:24:32.060Z,88.98
2022-08-28T00:29:35.080Z,89.93
2022-08-28T00:34:38.817Z,89.09
2022-08-28T00:39:43.165Z,89.48
2022-08-28T00:44:47.474Z,90.50
2022-08-28T00:49:54.044Z,90.15
2022-08-28T00:55:01.236Z,91.55
2022-08-28T01:00:07.673Z,91.01
2022-08-28T01:05:10.924Z,90.87
2022-08-28T01:10:21.999Z,91.16
2022-08-28T01:15:28.593Z,90.79
2022-08-28T01:20:35.118Z,90.00
2022-08-28T01:25:40.900Z,89.98
2022-08-28T01:30:46.875Z,88.77
2022-08-28T01:35:49.968Z,89.00
2022-08-28T01:40:57.254Z,88.88
2022-08-28T01:46:02.271Z,88.35
2022-08-28T01:51:06.683Z,87.21
2022-08-28T01:56:13.783Z,87.07
2022-08-28T02:01:18.750Z,86.46
2022-08-28T02:06:21.845Z,86.84
2022-08-28T02:11:26.496Z,85.90
2022-08-28T02:16:30.639Z,85.11
2022-08-28T02:21:33.607Z,86.32
2022-08-28T02:26:37.988Z,86.07
2022-08-28T02:31:40.991Z,86.43
2022-08-28T02:36:44.330Z,86.37
2022-08-28T02:41:48.668Z,86.02
2022-08-28T02:46:51.875Z,86.18
2022-08-28T02:51:57.691Z,86.05
2022-08-28T02:57:02.113Z,86.34
2022-08-28T03:02:07.169Z,86.59
2022-08-28T03:07:12.673Z,85.98
2022-08-28T03:12:17.146Z,85.12
2022-08-28T03:17:21.378Z,86.20
2022-08-28T03:22:44.932Z,86.80
2022-08-28T03:27:49.466Z,85.73
2022-08-28T03:32:52.849Z,86.88
2022-08-28T03:37:55.846Z,86.44
2022-08-28T03:43:00.300Z,86.34
2022-08-28T03:48:03.872Z,86.52
2022-08-28T03:53:07.506Z,85.62
2022-08-28T03:58:12.067Z,85.82
2022-08-28T04:03:22.606Z,85.73
2022-08-28T04:08:26.284Z,85.29
2022-08-28T04:13:30.809Z,86.20
2022-08-28T04:18:34.529Z,84.81
2022-08-28T04:23:39.295Z,86.34
2022-08-28T04:28:43.908Z,86.32
2022-08-28T04:33:46.896Z,84.50
2022-08-28T04:38:50.691Z,84.13
2022-08-28T04:43:57.221Z,84.11
2022-08-28T04:49:00.519Z,84.17
2022-08-28T04:54:04.482Z,84.83
2022-08-28T04:59:09.611Z,84.48
2022-08-28T05:04:13.583Z,83.47
2022-08-28T05:09:21.089Z,82.85
2022-08-28T05:14:25.413Z,83.05
2022-08-28T05:19:29.348Z,82.63
2022-08-28T05:24:32.328Z,83.25
2022-08-28T05:29:36.667Z,83.75
2022-08-28T05:34:39.672Z,83.21
2022-08-28T05:39:42.604Z,83.04
2022-08-28T05:44:46.976Z,84.20
2022-08-28T05:49:49.971Z,83.69
2022-08-28T05:54:55.367Z,81.11
2022-08-28T06:00:00.116Z,80.92
2022-08-28T06:05:03.414Z,80.91
2022-08-28T06:10:07.548Z,81.31
2022-08-28T06:15:15.925Z,80.83
2022-08-28T06:20:19.346Z,80.21
2022-08-28T06:25:22.320Z,80.23
2022-08-28T06:30:26.838Z,80.00
2022-08-28T06:35:34.389Z,78.33
2022-08-28T06:40:41.927Z,77.85
2022-08-28T06:45:50.320Z,76.84
2022-08-28T06:50:55.018Z,75.67
2022-08-28T06:56:00.347Z,74.83
2022-08-28T07:01:08.677Z,75.59
2022-08-28T07:06:13.977Z,74.11
2022-08-28T07:11:19.911Z,74.84
2022-08-28T07:16:26.839Z,75.63
2022-08-28T07:21:35.333Z,73.85
2022-08-28T07:26:43.565Z,73.98
2022-08-28T07:31:51.213Z,73.66
2022-08-28T07:36:54.497Z,73.56
2022-08-28T07:41:57.486Z,72.72
2022-08-28T07:47:04.253Z,73.14
2022-08-28T07:52:08.896Z,71.91
2022-08-28T07:57:12.016Z,71.31
2022-08-28T08:02:16.586Z,72.45
2022-08-28T08:07:20.517Z,71.81
2022-08-28T08:12:23.854Z,69.88
2022-08-28T08:17:29.760Z,69.92
2022-08-28T08:22:33.141Z,71.18
2022-08-28T08:27:41.030Z,69.40
2022-08-28T08:32:47.266Z,66.54
2022-08-28T08:37:50.229Z,66.32
2022-08-28T08:42:57.196Z,66.03
2022-08-28T08:48:02.227Z,68.04
2022-08-28T08:53:29.318Z,69.79
2022-08-28T08:58:36.259Z,68.28
2022-08-28T09:03:54.507Z,66.29
2022-08-28T09:09:02.799Z,64.03
2022-08-28T09:14:12.803Z,66.40
2022-08-28T09:19:21.023Z,64.19
2022-08-28T09:24:26.701Z,63.47
2022-08-28T09:29:33.000Z,63.32
2022-08-28T09:34:39.252Z,64.17
2022-08-28T09:39:45.542Z,64.70
2022-08-28T09:44:56.366Z,63.54
2022-08-28T09:50:17.245Z,63.06
2022-08-28T09:55:26.604Z,63.60
2022-08-28T10:00:35.137Z,63.91
2022-08-28T10:05:47.944Z,61.45
2022-08-28T10:10:57.443Z,60.25
2022-08-28T10:16:18.522Z,56.50
2022-08-28T10:21:30.645Z,58.10
2022-08-28T10:26:40.728Z,61.21
2022-08-28T10:31:52.832Z,54.11
2022-08-28T10:37:05.390Z,58.43
2022-08-28T10:42:09.163Z,58.92
2022-08-28T10:47:14.025Z,60.51
2022-08-28T10:52:25.248Z,59.23
2022-08-28T10:57:39.254Z,60.53
2022-08-28T11:02:47.056Z,59.29
2022-08-28T11:07:55.341Z,59.48
2022-08-28T11:12:58.697Z,57.35
2022-08-28T11:18:37.933Z,58.02
2022-08-28T11:23:50.738Z,59.05
2022-08-28T11:28:53.752Z,55.64
2022-08-28T11:33:59.077Z,57.58
2022-08-28T11:39:20.593Z,58.56
2022-08-28T11:44:42.703Z,58.40
2022-08-28T11:49:46.607Z,57.51
2022-08-28T11:55:02.035Z,51.81
2022-08-28T12:00:11.563Z,54.64
2022-08-28T12:05:44.328Z,53.88
2022-08-28T12:10:59.804Z,51.40
2022-08-28T12:16:07.621Z,52.45
2022-08-28T12:21:17.456Z,55.91
2022-08-28T12:26:26.427Z,52.74
2022-08-28T12:32:10.520Z,53.52
2022-08-28T12:37:51.634Z,53.25
2022-08-28T12:43:00.225Z,52.17
2022-08-28T12:48:09.797Z,54.32
2022-08-28T12:53:16.478Z,52.70
2022-08-28T12:58:32.184Z,55.59
2022-08-28T13:03:35.744Z,54.47
2022-08-28T13:08:39.071Z,53.97
2022-08-28T13:13:48.668Z,55.21
2022-08-28T13:18:56.462Z,54.27
2022-08-28T13:24:40.431Z,55.15
2022-08-28T13:29:57.452Z,54.26
2022-08-28T13:35:19.635Z,54.07
2022-08-28T13:40:55.826Z,52.28
2022-08-28T13:45:50.784Z,50.20
2022-08-28T13:50:57.871Z,51.55
2022-08-28T13:56:01.675Z,51.53
2022-08-28T14:01:06.412Z,49.98
2022-08-28T14:06:12.378Z,52.67
2022-08-28T14:11:17.097Z,53.31
2022-08-28T14:16:21.520Z,51.80
2022-08-28T14:21:25.305Z,52.80
2022-08-28T14:26:28.958Z,53.15
2022-08-28T14:31:33.750Z,54.67
2022-08-28T14:36:37.985Z,53.14
2022-08-28T14:41:44.349Z,51.62
2022-08-28T14:46:57.177Z,51.83
2022-08-28T14:52:00.579Z,51.63
2022-08-28T14:57:03.860Z,49.30
2022-08-28T15:02:09.429Z,49.62
2022-08-28T15:07:13.512Z,50.71
2022-08-28T15:12:16.840Z,49.36
2022-08-28T15:17:23.267Z,50.56
2022-08-28T15:22:37.117Z,48.12
2022-08-28T15:27:40.567Z,47.85
2022-08-28T15:32:47.436Z,48.81
2022-08-28T15:37:51.426Z,48.54
2022-08-28T15:42:54.429Z,48.87
2022-08-28T15:47:59.715Z,49.33
2022-08-28T15:53:02.952Z,50.50
2022-08-28T15:58:13.700Z,50.39
2022-08-28T16:03:18.480Z,49.62
2022-08-28T16:08:21.520Z,47.63
2022-08-28T16:13:24.559Z,48.92
2022-08-28T16:18:29.064Z,48.79
2022-08-28T16:23:32.527Z,49.35
2022-08-28T16:28:36.533Z,50.33
2022-08-28T16:33:42.822Z,49.75
2022-08-28T16:38:49.531Z,50.24
2022-08-28T16:44:02.973Z,50.52
2022-08-28T16:49:07.501Z,51.39
2022-08-28T16:54:10.796Z,51.87
2022-08-28T16:59:16.529Z,52.69
2022-08-28T17:04:21.684Z,52.24
2022-08-28T17:09:24.719Z,53.85
2022-08-28T17:14:28.282Z,54.11
2022-08-28T17:19:32.641Z,54.11
2022-08-28T17:24:35.806Z,54.60
2022-08-28T17:29:39.355Z,54.17
2022-08-28T17:34:43.752Z,53.54
2022-08-28T17:39:46.802Z,55.94
2022-08-28T17:44:49.882Z,55.84
2022-08-28T17:49:54.930Z,56.25
2022-08-28T17:54:58.090Z,56.58
2022-08-28T18:00:05.250Z,56.52
2022-08-28T18:05:30.158Z,56.46
2022-08-28T18:10:35.112Z,56.33
2022-08-28T18:15:38.219Z,56.93
2022-08-28T18:20:43.137Z,57.05
2022-08-28T18:25:50.846Z,58.50
2022-08-28T18:30:55.260Z,58.76
2022-08-28T18:35:59.804Z,59.62
2022-08-28T18:41:03.605Z,60.27
2022-08-28T18:46:08.939Z,60.46
2022-08-28T18:51:13.741Z,61.08
2022-08-28T18:56:18.823Z,61.07
2022-08-28T19:01:23.450Z,62.11
2022-08-28T19:06:28.155Z,62.80
2022-08-28T19:11:31.510Z,63.00
2022-08-28T19:16:35.403Z,63.22
2022-08-28T19:21:40.001Z,63.72
2022-08-28T19:26:43.066Z,63.51
2022-08-28T19:31:46.206Z,64.17
2022-08-28T19:36:50.977Z,64.46
2022-08-28T19:41:54.512Z,65.41
2022-08-28T19:46:57.592Z,65.69
2022-08-28T19:52:03.034Z,65.78
2022-08-28T19:57:06.689Z,66.20
2022-08-28T20:02:10.119Z,66.25
2022-08-28T20:07:14.494Z,66.73
2022-08-28T20:12:17.661Z,67.19
2022-08-28T20:17:20.701Z,67.16
2022-08-28T20:22:25.183Z,67.48
2022-08-28T20:27:29.661Z,67.32
2022-08-28T20:32:33.068Z,67.83
2022-08-28T20:37:44.731Z,67.62
2022-08-28T20:42:49.313Z,68.20
2022-08-28T20:47:52.352Z,69.12
2022-08-28T20:52:56.761Z,69.04
2022-08-28T20:57:59.761Z,69.01
2022-08-28T21:03:02.726Z,69.22
2022-08-28T21:09:00.415Z,69.49
2022-08-28T21:14:03.420Z,69.63
2022-08-28T21:19:15.863Z,69.57
2022-08-28T21:24:21.101Z,69.69
2022-08-28T21:29:24.681Z,70.41
2022-08-28T21:34:27.927Z,70.67
2022-08-28T21:39:32.303Z,72.12
2022-08-28T21:44:35.291Z,71.67
2022-08-28T21:49:38.928Z,71.25
2022-08-28T21:54:43.389Z,72.26
2022-08-28T21:59:46.368Z,72.47
2022-08-28T22:04:49.610Z,72.50
2022-08-28T22:09:54.004Z,72.90
2022-08-28T22:14:57.069Z,72.57
2022-08-28T22:20:00.080Z,73.01
2022-08-28T22:25:05.590Z,72.98
2022-08-28T22:30:09.571Z,72.65
2022-08-28T22:35:12.596Z,72.99
2022-08-28T22:40:17.470Z,73.00
2022-08-28T22:45:21.528Z,74.01
2022-08-28T22:50:24.730Z,73.19
2022-08-28T22:55:29.305Z,72.73
2022-08-28T23:00:33.308Z,72.49
2022-08-28T23:05:36.364Z,72.92
2022-08-28T23:10:57.985Z,73.93
2022-08-28T23:16:02.560Z,73.29
2022-08-28T23:21:08.461Z,74.08
2022-08-28T23:26:14.135Z,74.67
2022-08-28T23:31:17.110Z,73.91
2022-08-28T23:36:20.066Z,73.95
2022-08-28T23:41:24.341Z,73.76
2022-08-28T23:46:27.471Z,75.03
2022-08-28T23:51:31.073Z,74.28
2022-08-28T23:56:35.557Z,73.68
